Flight Track Log - Related Links

Times and Time Zones

All times are in EDT time to prevent confusion due to time zone crossing. See the SWA920 flight status page for this flight to view local times or setup timezone preferences in your user account.

Time Position Orientation Groundspeed Altitude Reporting Facility
EDT Latitude Longitude Course Direction KTS MPH feet Rate Location/Type
Tue 09:59:03 PM 39.1325 -76.5522 103° East 198 228 5,900  Level Washington Center
Tue 10:00:03 PM 39.1353 -76.4558 88° East 235 270 9,900 3,378 Climbing Washington Center
Tue 10:01:02 PM 39.1422 -76.3464 85° East 266 306 12,600 3,227 Climbing Washington Center
Tue 10:02:02 PM 39.1494 -76.2178 86° East 310 357 16,300 3,174 Climbing Washington Center
Tue 10:03:03 PM 39.1686 -76.0869 79° East 351 404 19,000 2,773 Climbing Washington Center
Tue 10:04:01 PM 39.1858 -75.9503 81° East 372 428 21,800 2,100 Climbing Washington Center
Tue 10:05:03 PM 39.2342 -75.8275 63° Northeast 379 436 23,200 1,950 Climbing Washington Center
Tue 10:06:01 PM 39.3114 -75.7283 45° Northeast 373 429 25,700 1,881 Climbing Washington Center
Tue 10:07:01 PM 39.4072 -75.6481 33° Northeast 383 441 26,900 950 Climbing Washington Center
Tue 10:08:01 PM 39.5031 -75.5781 29° Northeast 388 447 27,600 1,692 Climbing Washington Center
Tue 10:10:16 PM 39.6811 -75.3403 46° Northeast 408 470 32,400 1,271 Climbing New York Center
Tue 10:12:16 PM 39.8211 -75.1089 52° Northeast 426 490 33,000 199 Climbing New York Center
Tue 10:13:17 PM 39.8964 -74.9917 50° Northeast 426 490 33,000  Level New York Center
Tue 10:14:15 PM 39.9803 -74.8586 51° Northeast 432 497 33,000  Level New York Center
Tue 10:15:16 PM 40.0442 -74.7539 51° Northeast 427 491 33,000  Level New York Center
Tue 10:16:16 PM 40.1278 -74.6203 51° Northeast 427 491 33,000  Level New York Center
Tue 10:18:16 PM 40.2706 -74.3917 51° Northeast 432 497 33,000  Level New York Center
Tue 10:19:17 PM 40.3472 -74.2731 50° Northeast 432 497 33,000  Level New York Center
Tue 10:20:17 PM 40.4214 -74.1542 51° Northeast 427 491 33,000 -222 Level New York Center
Tue 10:22:26 PM 40.5883 -73.8911 50° Northeast 451 519 32,300 -857 Descending Boston Center
Tue 10:23:26 PM 40.6608 -73.7669 52° Northeast 440 506 30,300 -2,200 Descending Boston Center
Tue 10:24:26 PM 40.7308 -73.6425 53° Northeast 434 499 27,900 -2,350 Descending Boston Center
Tue 10:25:26 PM 40.8069 -73.5342 47° Northeast 422 486 25,600 -1,950 Descending Boston Center
Tue 10:26:26 PM 40.8706 -73.4172 54° Northeast 408 470 24,000 -1,200 Descending Boston Center
Tue 10:27:26 PM 40.9444 -73.3167 46° Northeast 392 451 23,200 -500 Descending Boston Center
Tue 10:28:26 PM 41.0181 -73.2103 47° Northeast 386 444 23,000 -100 Descending Boston Center
Tue 10:29:26 PM 41.0897 -73.1039 48° Northeast 381 438 23,000  Level Boston Center
Tue 10:30:26 PM 41.1528 -72.9886 54° Northeast 381 438 23,000  Level Boston Center
Tue 10:31:26 PM 41.1992 -72.8594 64° Northeast 381 438 23,000  Level Boston Center
Tue 10:32:26 PM 41.2475 -72.7300 64° Northeast 381 438 23,000  Level Boston Center
Tue 10:33:26 PM 41.3042 -72.5811 63° Northeast 392 451 23,000  Level Boston Center
Tue 10:34:26 PM 41.3522 -72.4511 64° Northeast 392 451 23,000 -50 Level Boston Center
Tue 10:35:26 PM 41.4000 -72.3211 64° Northeast 392 451 22,900 -500 Descending Boston Center
Tue 10:36:26 PM 41.4436 -72.2075 63° Northeast 385 443 22,000 -950 Descending Boston Center
Tue 10:37:26 PM 41.4892 -72.0800 64° Northeast 385 443 21,000 -1,550 Descending Boston Center
Tue 10:38:26 PM 41.5406 -71.9436 63° Northeast 385 443 18,900 -1,800 Descending Boston Center
Tue 10:39:26 PM 41.5839 -71.8239 64° Northeast 370 426 17,400 -1,950 Descending Boston Center
Tue 10:40:26 PM 41.6247 -71.7097 64° Northeast 348 400 15,000 -2,150 Descending Boston Center
Tue 10:41:26 PM 41.6636 -71.5953 66° East 338 389 13,100 -1,750 Descending Boston Center
Tue 10:42:26 PM 41.6942 -71.5172 62° Northeast 338 389 11,500 -1,050 Descending Boston Center
Tue 10:43:26 PM 41.7411 -71.3994 62° Northeast 302 348 11,000 -250 Descending Boston Center
Tue 10:44:26 PM 41.7903 -71.3069 54° Northeast 279 321 11,000 -150 Level Boston Center
Tue 10:45:26 PM 41.8461 -71.2558 34° Northeast 262 302 10,700 -1,050 Descending Boston Center
Tue 10:46:26 PM 41.9250 -71.2181 20° North 262 302 8,900 -1,250 Descending Boston Center
Tue 10:47:26 PM 41.9808 -71.1917 19° North 255 293 8,200 -1,000 Descending Boston Center
Tue 10:48:26 PM 42.0450 -71.1569 22° Northeast 231 266 6,900 -1,300 Descending Boston Center
Tue 10:49:26 PM 42.0928 -71.1364 18° North 225 259 5,600 -1,350 Descending Boston Center
Tue 10:50:26 PM 42.1569 -71.1042 20° North 206 237 4,200 -1,261 Descending Boston Center
Tue 10:51:25 PM 42.2167 -71.0833 14° North 195 224 3,100 -933 Descending KA90
Tue 10:53:26 PM 42.3000 -71.0367 22° Northeast 186 214 1,400 -1,000 Descending Boston Center
Tue 10:53:43 PM 42.3167 -71.0333 North 165 190 800 -1,119 Descending KA90
Tue 10:54:25 PM 42.3500 -71.0167 20° North 148 170 300 -714 Descending KA90
Tue 10:57:00 PM 42.3500 -71.0000 North  Level FlightAware Approximate

Login

Don't have an account? Register now (free) for customized features, flight alerts, and more!